Aérodrome :
LOGIN :

S'inscrire | Disclaimer

   EN    FR    IT 

 










Légende :    VFR   VFR Marginal   IFR   IFR Intensif   IFR Très Intensif
Visi : 
Plafond : 
>= 8 km
>= 3000ft
5 à 8 km
1000 à 3000 ft
1500m à 5 km
500 à 1000 ft
800 à 1500m
200 à 500 ft
< 800m
< 200 ft
Symboles :   Orages  Brouillard  Fortes neiges  Fortes précipitations  Vent > 20 kt
SIGMETs :   Divers  Orages  Givrage  Turbulence  Onde Orograph.  Cendres Volcan.






- Altitude de l'aérodrome : 161 ft


LRTZ - Tuzla Romania

DERNIER METAR :
  • 191800Z 03006KT 9999 SCT050 OVC100 0705 Q1018 BLU BLU

METARs EXPIRÉS :
  • 191700Z 03008KT 9999 SCT050 OVC100 0705 Q1018 BLU BLU
  • 191600Z 03008KT 9999 SCT050 OVC100 08705 Q1018 BLU BLU

TAF TAF LRTZ
Valide du 19 à 18h jusqu'au 20 à 18h UTC


191700Z 1918/2018 03010KT 9999 SCT050 BKN100
BECMG 1921/1923 4000 BR SCT020 BKN080
TEMPO 1923/2004 0800 FG VV001
BECMG 2010/2012 9999
TEMPO 2015/2018 6000 -RA SCT015 OVC050



MET'MAP, la Météo Aéronautique d'un coup d'oeil ! - Copyright ORBIFLY Décembre 2007 - Disclaimer

ORBIFLY MET'MAP TEAM :

Programmation & Développement : Alexandra Zaïnal
Sur une idée originale de : Baudouin d'Aumeries
Assistance à la programmation : Marc-Olivier Méhu
Soutien technique & logistique : Manuel Goepfert

Contact : metmap@orbifly.com




SOURCES & CREDITS :

   NOAA